createdAt,value
2022-10-09T00:01:05.708Z,4.40
2022-10-09T00:03:39.825Z,4.20
2022-10-09T00:06:08.991Z,3.60
2022-10-09T00:08:36.832Z,4.00
2022-10-09T00:11:05.258Z,4.00
2022-10-09T00:13:32.820Z,3.60
2022-10-09T00:16:02.844Z,3.50
2022-10-09T00:18:30.383Z,3.00
2022-10-09T00:20:58.170Z,3.20
2022-10-09T00:23:25.841Z,3.80
2022-10-09T00:25:54.327Z,3.00
2022-10-09T00:28:23.053Z,3.60
2022-10-09T00:30:50.799Z,3.10
2022-10-09T00:33:18.883Z,2.90
2022-10-09T00:35:46.622Z,2.90
2022-10-09T00:38:14.445Z,3.00
2022-10-09T00:40:42.034Z,2.60
2022-10-09T00:43:17.981Z,2.90
2022-10-09T00:45:49.979Z,2.40
2022-10-09T00:48:18.658Z,3.10
2022-10-09T00:50:49.979Z,2.40
2022-10-09T00:53:19.907Z,2.60
2022-10-09T00:55:47.656Z,2.50
2022-10-09T00:58:15.693Z,2.60
2022-10-09T01:00:43.217Z,2.80
2022-10-09T01:03:10.860Z,2.40
2022-10-09T01:05:38.612Z,2.60
2022-10-09T01:08:10.570Z,3.10
2022-10-09T01:10:42.077Z,2.50
2022-10-09T01:13:09.577Z,2.60
2022-10-09T01:15:37.157Z,2.70
2022-10-09T01:18:09.088Z,2.50
2022-10-09T01:20:54.788Z,2.50
2022-10-09T01:23:32.615Z,2.60
2022-10-09T01:26:09.290Z,2.90
2022-10-09T01:28:39.119Z,3.40
2022-10-09T01:31:08.248Z,2.80
2022-10-09T01:33:36.459Z,3.30
2022-10-09T01:36:04.620Z,2.40
2022-10-09T01:38:33.111Z,2.80
2022-10-09T01:41:02.324Z,2.70
2022-10-09T01:43:29.869Z,3.00
2022-10-09T01:46:17.936Z,3.00
2022-10-09T01:48:47.932Z,3.00
2022-10-09T01:51:16.269Z,3.30
2022-10-09T01:53:44.394Z,2.30
2022-10-09T01:56:14.597Z,2.40
2022-10-09T01:58:46.324Z,2.40
2022-10-09T02:01:16.741Z,2.90
2022-10-09T02:03:46.550Z,2.70
2022-10-09T02:06:15.624Z,3.00
2022-10-09T02:08:45.105Z,3.00
2022-10-09T02:11:14.904Z,2.70
2022-10-09T02:13:43.335Z,2.50
2022-10-09T02:16:18.968Z,2.50
2022-10-09T02:18:50.738Z,2.60
2022-10-09T02:21:21.253Z,2.60
2022-10-09T02:23:49.206Z,3.10
2022-10-09T02:26:17.234Z,3.20
2022-10-09T02:28:46.093Z,3.20
2022-10-09T02:31:25.186Z,2.30
2022-10-09T02:33:56.813Z,2.50
2022-10-09T02:36:25.121Z,2.80
2022-10-09T02:38:54.226Z,2.80
2022-10-09T02:41:22.223Z,3.20
2022-10-09T02:43:50.019Z,3.50
2022-10-09T02:46:17.748Z,2.90
2022-10-09T02:48:45.380Z,2.80
2022-10-09T02:51:13.393Z,2.50
2022-10-09T02:53:40.919Z,3.20
2022-10-09T02:56:08.497Z,3.10
2022-10-09T02:58:36.863Z,2.90
2022-10-09T03:01:05.102Z,4.00
2022-10-09T03:03:33.131Z,3.30
2022-10-09T03:06:05.271Z,3.20
2022-10-09T03:08:33.611Z,3.00
2022-10-09T03:11:01.151Z,3.50
2022-10-09T03:13:28.993Z,3.10
2022-10-09T03:16:02.090Z,3.90
2022-10-09T03:18:29.726Z,3.00
2022-10-09T03:20:57.742Z,3.20
2022-10-09T03:23:25.389Z,3.20
2022-10-09T03:25:57.138Z,3.70
2022-10-09T03:28:25.145Z,3.80
2022-10-09T03:30:53.218Z,3.90
2022-10-09T03:33:21.348Z,4.50
2022-10-09T03:35:49.968Z,3.20
2022-10-09T03:38:17.545Z,3.50
2022-10-09T03:40:45.208Z,3.80
2022-10-09T03:43:13.171Z,3.60
2022-10-09T03:45:41.373Z,4.30
2022-10-09T03:48:10.221Z,4.10
2022-10-09T03:50:41.229Z,4.60
2022-10-09T03:53:09.638Z,3.60
2022-10-09T03:55:37.481Z,3.40
2022-10-09T03:58:05.049Z,3.80
2022-10-09T04:00:32.798Z,4.30
2022-10-09T04:03:00.458Z,3.80
2022-10-09T04:05:28.096Z,5.40
2022-10-09T04:07:55.818Z,5.20
2022-10-09T04:10:23.646Z,3.80
2022-10-09T04:12:51.615Z,3.80
2022-10-09T04:15:19.562Z,4.10
2022-10-09T04:17:47.061Z,4.10
2022-10-09T04:20:14.606Z,4.40
2022-10-09T04:22:42.206Z,5.10
2022-10-09T04:25:09.784Z,6.50
2022-10-09T04:27:37.531Z,4.20
2022-10-09T04:30:05.503Z,3.80
2022-10-09T04:32:33.165Z,4.00
2022-10-09T04:35:00.719Z,4.10
2022-10-09T04:37:28.406Z,4.50
2022-10-09T04:39:57.033Z,4.80
2022-10-09T04:42:24.595Z,5.00
2022-10-09T04:44:52.269Z,4.00
2022-10-09T04:47:19.848Z,4.50
2022-10-09T04:49:47.523Z,4.80
2022-10-09T04:52:15.060Z,4.40
2022-10-09T04:54:42.642Z,5.10
2022-10-09T04:57:10.258Z,6.00
2022-10-09T04:59:37.857Z,6.50
2022-10-09T05:02:05.512Z,7.40
2022-10-09T05:04:33.254Z,7.00
2022-10-09T05:07:00.800Z,4.60
2022-10-09T05:09:28.405Z,6.20
2022-10-09T05:11:55.917Z,6.00
2022-10-09T05:14:23.487Z,6.40
2022-10-09T05:17:13.130Z,7.20
2022-10-09T05:19:41.442Z,6.20
2022-10-09T05:22:08.992Z,6.10
2022-10-09T05:24:36.618Z,4.90
2022-10-09T05:27:05.113Z,4.40
2022-10-09T05:29:33.014Z,5.00
2022-10-09T05:32:00.660Z,5.10
2022-10-09T05:34:28.397Z,4.20
2022-10-09T05:36:55.955Z,3.90
2022-10-09T05:39:23.557Z,3.70
2022-10-09T05:41:56.997Z,3.70
2022-10-09T05:44:29.393Z,4.00
2022-10-09T05:46:57.215Z,4.60
2022-10-09T05:49:28.140Z,4.60
2022-10-09T05:51:56.131Z,3.00
2022-10-09T05:54:23.856Z,4.00
2022-10-09T05:56:51.777Z,4.90
2022-10-09T05:59:22.784Z,3.90
2022-10-09T06:01:54.529Z,4.70
2022-10-09T06:04:23.300Z,4.10
2022-10-09T06:06:51.649Z,4.00
2022-10-09T06:09:22.266Z,3.60
2022-10-09T06:11:50.991Z,4.60
2022-10-09T06:14:21.455Z,3.70
2022-10-09T06:16:49.254Z,5.30
2022-10-09T06:19:20.015Z,5.00
2022-10-09T06:21:47.923Z,4.90
2022-10-09T06:24:28.828Z,4.20
2022-10-09T06:27:03.239Z,6.80
2022-10-09T06:29:31.099Z,3.90
2022-10-09T06:31:58.983Z,3.70
2022-10-09T06:34:27.034Z,3.90
2022-10-09T06:37:03.898Z,5.50
2022-10-09T06:39:53.109Z,4.50
2022-10-09T06:42:20.957Z,5.30
2022-10-09T06:44:55.983Z,4.70
2022-10-09T06:47:27.722Z,6.10
2022-10-09T06:49:59.273Z,4.70
2022-10-09T06:52:31.461Z,4.80
2022-10-09T06:54:59.173Z,4.90
2022-10-09T06:57:26.748Z,5.10
2022-10-09T06:59:54.333Z,5.30
2022-10-09T07:02:21.918Z,4.60
2022-10-09T07:04:49.558Z,4.70
2022-10-09T07:07:17.104Z,4.90
2022-10-09T07:09:46.780Z,4.30
2022-10-09T07:12:14.489Z,4.00
2022-10-09T07:15:00.907Z,4.10
2022-10-09T07:17:47.694Z,4.60
2022-10-09T07:20:24.308Z,2.80
2022-10-09T07:23:21.506Z,3.90
2022-10-09T07:25:52.063Z,3.20
2022-10-09T07:28:19.772Z,3.70
2022-10-09T07:30:51.175Z,4.20
2022-10-09T07:33:19.028Z,3.30
2022-10-09T07:35:53.712Z,2.90
2022-10-09T07:38:22.497Z,3.20
2022-10-09T07:40:53.166Z,3.00
2022-10-09T07:43:21.385Z,3.70
2022-10-09T07:45:49.217Z,3.40
2022-10-09T07:48:16.907Z,3.50
2022-10-09T07:50:50.125Z,2.80
2022-10-09T07:53:17.851Z,3.20
2022-10-09T07:55:46.807Z,3.00
2022-10-09T07:58:15.136Z,2.60
2022-10-09T08:00:43.372Z,3.00
2022-10-09T08:03:11.086Z,3.60
2022-10-09T08:05:49.798Z,5.40
2022-10-09T08:08:21.519Z,3.30
2022-10-09T08:10:49.135Z,3.60
2022-10-09T08:13:19.839Z,2.90
2022-10-09T08:15:47.652Z,2.70
2022-10-09T08:21:38.936Z,3.10
2022-10-09T08:24:16.104Z,3.50
2022-10-09T08:26:44.571Z,2.70
2022-10-09T08:29:14.217Z,2.90
2022-10-09T08:31:41.983Z,2.80
2022-10-09T08:34:10.587Z,3.30
2022-10-09T08:36:38.221Z,7.80
2022-10-09T08:39:05.992Z,8.00
2022-10-09T08:44:29.448Z,7.40
2022-10-09T08:47:15.850Z,3.90
2022-10-09T08:50:09.089Z,4.90
2022-10-09T08:52:50.138Z,2.70
2022-10-09T08:55:25.835Z,2.70
2022-10-09T08:58:01.115Z,2.60
2022-10-09T09:00:31.094Z,12.70
2022-10-09T09:02:58.787Z,4.90
2022-10-09T09:05:41.964Z,2.80
2022-10-09T09:08:40.165Z,3.10
2022-10-09T09:11:29.081Z,3.40
2022-10-09T09:13:56.693Z,2.90
2022-10-09T09:16:39.287Z,3.70
2022-10-09T09:19:12.809Z,2.10
2022-10-09T09:21:53.340Z,2.60
2022-10-09T09:24:23.720Z,2.80
2022-10-09T09:26:53.262Z,2.80
2022-10-09T09:29:23.322Z,3.10
2022-10-09T09:31:54.627Z,3.00
2022-10-09T09:34:29.276Z,3.10
2022-10-09T09:36:58.238Z,3.10
2022-10-09T09:42:20.414Z,2.70
2022-10-09T09:44:57.195Z,2.50
2022-10-09T09:47:36.137Z,2.00
2022-10-09T09:50:06.030Z,2.90
2022-10-09T09:52:39.833Z,2.80
2022-10-09T09:55:07.554Z,3.00
2022-10-09T09:57:41.978Z,2.80
2022-10-09T10:00:17.813Z,2.80
2022-10-09T10:02:46.479Z,2.90
2022-10-09T10:05:18.823Z,2.70
2022-10-09T10:07:50.253Z,2.60
2022-10-09T10:10:25.398Z,2.60
2022-10-09T10:12:56.542Z,2.60
2022-10-09T10:15:34.116Z,3.70
2022-10-09T10:18:01.732Z,2.70
2022-10-09T10:20:30.462Z,2.50
2022-10-09T10:22:58.652Z,2.40
2022-10-09T10:25:29.951Z,2.20
2022-10-09T10:28:00.930Z,2.60
2022-10-09T10:30:28.676Z,2.20
2022-10-09T10:32:56.251Z,2.10
2022-10-09T10:35:25.053Z,2.50
2022-10-09T10:37:58.287Z,2.20
2022-10-09T10:40:32.420Z,4.00
2022-10-09T10:43:23.365Z,2.30
2022-10-09T10:46:03.577Z,2.10
2022-10-09T10:48:32.497Z,2.20
2022-10-09T10:51:15.271Z,2.20
2022-10-09T10:53:58.093Z,2.10
2022-10-09T10:56:35.955Z,2.10
2022-10-09T10:59:18.711Z,2.20
2022-10-09T11:02:01.562Z,2.30
2022-10-09T11:04:38.147Z,2.20
2022-10-09T11:07:14.865Z,2.20
2022-10-09T11:10:02.632Z,2.50
2022-10-09T11:12:48.151Z,3.00
2022-10-09T11:15:17.106Z,16.60
2022-10-09T11:17:59.283Z,21.10
2022-10-09T11:20:44.523Z,4.40
2022-10-09T11:23:30.881Z,3.90
2022-10-09T11:25:58.417Z,3.00
2022-10-09T11:28:30.819Z,3.40
2022-10-09T11:31:03.013Z,3.00
2022-10-09T11:33:36.998Z,2.70
2022-10-09T11:36:13.045Z,2.40
2022-10-09T11:38:45.017Z,2.50
2022-10-09T11:41:13.016Z,2.50
2022-10-09T11:43:40.585Z,2.20
2022-10-09T11:46:18.175Z,2.60
2022-10-09T11:48:53.894Z,2.90
2022-10-09T11:51:40.219Z,3.10
2022-10-09T11:54:12.716Z,3.10
2022-10-09T11:56:51.723Z,3.20
2022-10-09T11:59:31.277Z,2.50
2022-10-09T12:01:59.979Z,3.00
2022-10-09T12:07:27.148Z,3.20
2022-10-09T12:10:00.397Z,3.40
2022-10-09T12:12:28.424Z,3.30
2022-10-09T12:14:56.468Z,3.00
2022-10-09T12:17:24.146Z,3.10
2022-10-09T12:20:00.879Z,3.50
2022-10-09T12:22:35.043Z,3.30
2022-10-09T12:25:15.120Z,4.20
2022-10-09T12:27:43.004Z,3.70
2022-10-09T12:30:14.324Z,3.50
2022-10-09T12:32:45.770Z,3.50
2022-10-09T12:35:29.027Z,3.80
2022-10-09T12:37:56.676Z,3.70
2022-10-09T12:40:26.352Z,3.40
2022-10-09T12:42:55.400Z,3.90
2022-10-09T12:45:25.090Z,3.70
2022-10-09T12:47:53.601Z,3.30
2022-10-09T12:50:30.896Z,3.40
2022-10-09T12:53:00.164Z,3.00
2022-10-09T12:55:29.310Z,3.30
2022-10-09T12:57:58.708Z,3.10
2022-10-09T13:00:26.274Z,4.00
2022-10-09T13:02:54.929Z,4.20
2022-10-09T13:05:23.022Z,3.70
2022-10-09T13:07:52.405Z,3.50
2022-10-09T13:10:21.353Z,3.50
2022-10-09T13:12:54.032Z,2.80
2022-10-09T13:15:27.762Z,2.90
2022-10-09T13:17:55.281Z,3.30
2022-10-09T13:20:28.728Z,3.50
2022-10-09T13:22:58.226Z,3.50
2022-10-09T13:25:27.347Z,3.10
2022-10-09T13:27:55.354Z,3.30
2022-10-09T13:30:22.957Z,3.60
2022-10-09T13:32:50.580Z,3.40
2022-10-09T13:35:18.143Z,3.50
2022-10-09T13:37:45.783Z,3.20
2022-10-09T13:40:15.790Z,2.90
2022-10-09T13:42:46.645Z,2.90
2022-10-09T13:45:14.250Z,3.10
2022-10-09T13:47:41.776Z,3.90
2022-10-09T13:50:09.916Z,3.90
2022-10-09T13:55:05.510Z,3.40
2022-10-09T13:57:33.056Z,3.30
2022-10-09T14:00:00.636Z,3.80
2022-10-09T14:02:28.194Z,3.20
2022-10-09T14:04:55.720Z,3.10
2022-10-09T14:07:23.366Z,3.20
2022-10-09T14:09:51.145Z,3.30
2022-10-09T14:12:18.658Z,3.10
2022-10-09T14:14:46.348Z,3.50
2022-10-09T14:17:13.930Z,3.20
2022-10-09T14:19:41.580Z,3.80
2022-10-09T14:22:09.182Z,3.70
2022-10-09T14:24:36.885Z,3.40
2022-10-09T14:27:04.465Z,3.90
2022-10-09T14:29:32.084Z,3.60
2022-10-09T14:31:59.688Z,3.50
2022-10-09T14:34:27.269Z,3.70
2022-10-09T14:36:55.103Z,3.10
2022-10-09T14:39:22.742Z,3.00
2022-10-09T14:41:50.337Z,3.30
2022-10-09T14:44:17.897Z,3.50
2022-10-09T14:46:45.468Z,3.50
2022-10-09T14:49:13.081Z,4.10
2022-10-09T14:51:41.711Z,3.90
2022-10-09T14:54:10.699Z,2.90
2022-10-09T14:56:38.359Z,3.30
2022-10-09T14:59:06.156Z,2.50
2022-10-09T15:01:34.356Z,2.90
2022-10-09T15:04:02.536Z,2.60
2022-10-09T15:06:30.552Z,3.30
2022-10-09T15:09:05.372Z,3.10
2022-10-09T15:11:34.249Z,3.50
2022-10-09T15:14:02.314Z,3.40
2022-10-09T15:16:29.864Z,3.70
2022-10-09T15:18:57.491Z,2.90
2022-10-09T15:21:26.863Z,3.00
2022-10-09T15:23:55.828Z,3.00
2022-10-09T15:26:24.059Z,3.40
2022-10-09T15:28:51.653Z,2.70
2022-10-09T15:31:30.158Z,3.30
2022-10-09T15:33:58.808Z,2.90
2022-10-09T15:36:26.852Z,2.40
2022-10-09T15:38:54.717Z,2.80
2022-10-09T15:41:30.250Z,3.40
2022-10-09T15:43:59.025Z,3.60
2022-10-09T15:46:26.933Z,3.00
2022-10-09T15:48:54.565Z,3.40
2022-10-09T15:51:22.898Z,3.10
2022-10-09T15:53:51.108Z,3.60
2022-10-09T15:56:20.417Z,2.60
2022-10-09T15:58:48.034Z,2.90
2022-10-09T16:01:16.331Z,3.10
2022-10-09T16:03:44.118Z,2.30
2022-10-09T16:06:13.110Z,3.10
2022-10-09T16:08:41.238Z,3.90
2022-10-09T16:11:10.129Z,3.60
2022-10-09T16:13:39.505Z,4.10
2022-10-09T16:16:08.117Z,4.20
2022-10-09T16:18:35.728Z,4.10
2022-10-09T16:21:07.132Z,3.60
2022-10-09T16:23:35.086Z,3.30
2022-10-09T16:26:03.977Z,4.50
2022-10-09T16:28:32.010Z,3.20
2022-10-09T16:30:59.699Z,3.50
2022-10-09T16:33:27.486Z,3.60
2022-10-09T16:35:55.151Z,4.10
2022-10-09T16:38:22.725Z,4.70
2022-10-09T16:41:01.688Z,4.50
2022-10-09T16:43:32.882Z,4.90
2022-10-09T16:46:10.634Z,4.20
2022-10-09T16:48:38.224Z,4.00
2022-10-09T16:51:09.533Z,5.30
2022-10-09T16:53:37.299Z,4.10
2022-10-09T16:56:12.409Z,4.00
2022-10-09T16:58:41.018Z,4.10
2022-10-09T17:01:10.316Z,4.90
2022-10-09T17:03:40.640Z,5.60
2022-10-09T17:06:09.341Z,6.50
2022-10-09T17:08:37.102Z,14.10
2022-10-09T17:11:09.063Z,29.10
2022-10-09T17:13:36.810Z,12.90
2022-10-09T17:16:08.441Z,7.90
2022-10-09T17:18:36.475Z,8.90
2022-10-09T17:21:05.074Z,11.50
2022-10-09T17:23:32.872Z,12.80
2022-10-09T17:26:04.968Z,20.40
2022-10-09T17:28:34.464Z,15.50
2022-10-09T17:31:03.527Z,13.80
2022-10-09T17:33:31.787Z,10.00
2022-10-09T17:35:59.407Z,10.30
2022-10-09T17:38:26.976Z,12.20
2022-10-09T17:40:54.830Z,11.30
2022-10-09T17:43:22.400Z,17.80
2022-10-09T17:45:50.064Z,15.20
2022-10-09T17:48:17.651Z,13.80
2022-10-09T17:50:55.113Z,11.20
2022-10-09T17:53:22.843Z,13.20
2022-10-09T17:55:51.904Z,12.70
2022-10-09T17:58:20.391Z,13.10
2022-10-09T18:00:48.369Z,14.90
2022-10-09T18:03:17.392Z,17.00
2022-10-09T18:05:46.419Z,14.90
2022-10-09T18:08:14.963Z,13.60
2022-10-09T18:10:42.803Z,16.00
2022-10-09T18:13:11.168Z,18.40
2022-10-09T18:15:39.972Z,21.80
2022-10-09T18:18:07.884Z,26.90
2022-10-09T18:20:35.985Z,17.30
2022-10-09T18:23:04.467Z,21.90
2022-10-09T18:25:32.351Z,19.20
2022-10-09T18:27:59.987Z,18.10
2022-10-09T18:30:27.814Z,14.60
2022-10-09T18:32:55.816Z,12.90
2022-10-09T18:35:23.374Z,12.10
2022-10-09T18:40:59.766Z,15.10
2022-10-09T18:46:39.595Z,19.90
2022-10-09T18:49:18.456Z,23.20
2022-10-09T18:51:50.317Z,17.10
2022-10-09T18:54:19.592Z,20.10
2022-10-09T18:56:47.388Z,23.80
2022-10-09T18:59:16.517Z,21.50
2022-10-09T19:01:44.729Z,16.90
2022-10-09T19:04:12.398Z,19.00
2022-10-09T19:06:51.900Z,28.50
2022-10-09T19:09:19.854Z,19.80
2022-10-09T19:11:49.895Z,17.60
2022-10-09T19:14:17.513Z,20.10
2022-10-09T19:16:48.387Z,27.50
2022-10-09T19:19:28.556Z,32.00
2022-10-09T19:22:04.478Z,44.70
2022-10-09T19:24:37.835Z,38.80
2022-10-09T19:27:05.396Z,34.20
2022-10-09T19:29:38.263Z,31.30
2022-10-09T19:32:08.148Z,27.90
2022-10-09T19:34:35.746Z,25.20
2022-10-09T19:39:38.891Z,26.20
2022-10-09T19:42:19.036Z,23.80
2022-10-09T19:44:47.141Z,21.70
2022-10-09T19:47:19.299Z,23.00
2022-10-09T19:49:46.936Z,24.20
2022-10-09T19:52:23.539Z,19.40
2022-10-09T19:54:53.578Z,26.70
2022-10-09T19:57:21.728Z,24.70
2022-10-09T19:59:49.402Z,32.20
2022-10-09T20:02:23.526Z,29.60
2022-10-09T20:04:57.026Z,21.40
2022-10-09T20:07:24.624Z,17.20
2022-10-09T20:09:52.180Z,17.20
2022-10-09T20:12:19.872Z,19.40
2022-10-09T20:14:47.534Z,17.50
2022-10-09T20:17:15.195Z,18.30
2022-10-09T20:19:45.693Z,18.50
2022-10-09T20:22:13.508Z,20.80
2022-10-09T20:24:41.080Z,20.30
2022-10-09T20:27:08.631Z,20.10
2022-10-09T20:29:36.268Z,20.30
2022-10-09T20:32:03.878Z,16.60
2022-10-09T20:34:31.471Z,16.50
2022-10-09T20:36:59.053Z,16.70
2022-10-09T20:39:26.613Z,16.60
2022-10-09T20:41:54.334Z,15.90
2022-10-09T20:44:21.878Z,16.60
2022-10-09T20:46:49.863Z,16.80
2022-10-09T20:49:17.524Z,18.40
2022-10-09T20:51:45.075Z,18.70
2022-10-09T20:54:16.222Z,19.00
2022-10-09T20:56:47.107Z,19.00
2022-10-09T20:59:15.112Z,13.50
2022-10-09T21:01:42.834Z,15.80
2022-10-09T21:04:11.761Z,16.90
2022-10-09T21:06:39.415Z,12.80
2022-10-09T21:09:07.162Z,13.20
2022-10-09T21:11:35.043Z,13.40
2022-10-09T21:14:03.149Z,14.30
2022-10-09T21:16:30.723Z,14.70
2022-10-09T21:18:59.656Z,13.50
2022-10-09T21:21:28.856Z,13.90
2022-10-09T21:23:57.451Z,12.40
2022-10-09T21:26:26.249Z,11.50
2022-10-09T21:28:59.010Z,10.70
2022-10-09T21:31:28.673Z,11.60
2022-10-09T21:33:57.682Z,12.10
2022-10-09T21:37:01.772Z,10.30
2022-10-09T21:39:30.362Z,10.20
2022-10-09T21:41:57.987Z,11.30
2022-10-09T21:44:25.878Z,11.20
2022-10-09T21:46:53.454Z,11.40
2022-10-09T21:49:22.608Z,11.70
2022-10-09T21:51:50.484Z,12.00
2022-10-09T21:54:18.034Z,11.40
2022-10-09T21:56:45.587Z,11.10
2022-10-09T21:59:13.527Z,11.90
2022-10-09T22:01:41.105Z,10.90
2022-10-09T22:04:08.830Z,10.80
2022-10-09T22:06:36.449Z,11.90
2022-10-09T22:09:04.040Z,11.80
2022-10-09T22:11:31.548Z,12.80
2022-10-09T22:13:59.895Z,12.70
2022-10-09T22:16:27.448Z,13.00
2022-10-09T22:18:55.012Z,12.50
2022-10-09T22:21:23.240Z,12.40
2022-10-09T22:23:50.824Z,13.00
2022-10-09T22:26:19.517Z,12.80
2022-10-09T22:28:47.693Z,12.40
2022-10-09T22:31:16.855Z,10.70
2022-10-09T22:33:44.740Z,12.50
2022-10-09T22:36:12.294Z,12.90
2022-10-09T22:38:40.313Z,13.20
2022-10-09T22:41:12.507Z,13.30
2022-10-09T22:43:40.756Z,12.40
2022-10-09T22:46:08.305Z,12.40
2022-10-09T22:48:36.292Z,11.70
2022-10-09T22:51:04.987Z,12.10
2022-10-09T22:53:33.075Z,12.00
2022-10-09T22:56:00.913Z,13.00
2022-10-09T22:58:28.533Z,11.90
2022-10-09T23:00:56.183Z,11.60
2022-10-09T23:03:23.752Z,12.20
2022-10-09T23:05:51.308Z,13.30
2022-10-09T23:08:18.898Z,13.50
2022-10-09T23:10:46.479Z,13.20
2022-10-09T23:13:14.035Z,12.50
2022-10-09T23:15:41.585Z,13.70
2022-10-09T23:18:09.160Z,13.10
2022-10-09T23:20:37.495Z,12.90
2022-10-09T23:23:05.302Z,13.40
2022-10-09T23:25:32.880Z,13.80
2022-10-09T23:28:00.473Z,12.20
2022-10-09T23:30:28.029Z,12.80
2022-10-09T23:32:55.609Z,13.50
2022-10-09T23:35:23.153Z,13.10
2022-10-09T23:37:52.794Z,13.80
2022-10-09T23:40:20.459Z,14.10
2022-10-09T23:42:48.277Z,13.40
2022-10-09T23:45:16.952Z,15.00
2022-10-09T23:47:44.548Z,13.00
2022-10-09T23:50:12.121Z,13.10
2022-10-09T23:52:39.697Z,13.30
2022-10-09T23:55:07.560Z,13.00
2022-10-09T23:57:37.036Z,12.90
